Time;durP1;ratioP1;P1;durP2;ratioP2;P2;SDS_P1;SDS_P2;PMS_P1;PMS_P2;Temp;Humidity;BMP_temperature;BMP_pressure;BME280_temperature;BME280_humidity;BME280_pressure;Samples;Min_cycle;Max_cycle;Signal;HPM_P1;HPM_P2
2021/11/03 00:00:25;;;;;;;53.00;37.20;;;;;;;7.23;83.13;99193.65;85295;1321;82271;-64
2021/11/03 00:02:48;;;;;;;52.60;37.20;;;;;;;7.24;83.08;99191.48;85227;1328;98577;-63
2021/11/03 00:05:01;;;;;;;52.60;36.40;;;;;;;7.25;83.20;99192.34;85338;1322;87675;-64
2021/11/03 00:07:14;;;;;;;50.60;36.10;;;;;;;7.27;83.17;99195.17;85289;1316;93389;-66
2021/11/03 00:09:23;;;;;;;54.40;37.30;;;;;;;7.28;83.14;99196.75;85226;1324;78391;-66
2021/11/03 00:11:35;;;;;;;53.40;37.10;;;;;;;7.33;83.07;99198.06;85324;1329;81876;-64
2021/11/03 00:13:47;;;;;;;53.10;36.80;;;;;;;7.34;83.14;99201.29;85321;1321;98740;-64
2021/11/03 00:15:58;;;;;;;51.50;36.10;;;;;;;7.32;83.18;99203.59;85251;1324;87907;-64
2021/11/03 00:18:08;;;;;;;53.90;35.70;;;;;;;7.32;83.07;99204.21;85333;1321;94704;-65
2021/11/03 00:20:20;;;;;;;50.00;35.40;;;;;;;7.35;83.16;99202.61;85194;1324;81439;-65
2021/11/03 00:22:33;;;;;;;49.40;35.80;;;;;;;7.36;83.18;99204.69;85310;1322;82786;-63
2021/11/03 00:24:42;;;;;;;47.30;34.00;;;;;;;7.36;83.24;99203.39;85213;1325;96824;-63
2021/11/03 00:26:54;;;;;;;48.60;36.10;;;;;;;7.42;83.11;99200.48;85321;1321;88989;-67
2021/11/03 00:29:03;;;;;;;48.30;35.80;;;;;;;7.47;83.21;99198.00;85298;1322;96251;-66
2021/11/03 00:31:16;;;;;;;48.00;34.20;;;;;;;7.45;83.28;99201.47;85179;1324;82621;-66
2021/11/03 00:33:32;;;;;;;49.30;34.20;;;;;;;7.42;83.24;99200.79;85312;1323;81739;-66
2021/11/03 00:35:42;;;;;;;44.60;33.50;;;;;;;7.39;83.22;99201.23;85255;1328;99586;-63
2021/11/03 00:37:54;;;;;;;47.80;33.80;;;;;;;7.36;83.42;99196.05;85299;1328;89575;-64
2021/11/03 00:40:05;;;;;;;45.30;32.30;;;;;;;7.39;83.48;99194.08;85290;1321;93990;-67
2021/11/03 00:42:13;;;;;;;44.90;32.40;;;;;;;7.43;83.44;99195.63;85294;1328;79299;-65
2021/11/03 00:44:23;;;;;;;44.00;32.00;;;;;;;7.48;83.57;99196.27;85217;1324;81389;-65
2021/11/03 00:46:35;;;;;;;42.80;32.20;;;;;;;7.52;83.46;99194.11;85328;1321;97736;-68
2021/11/03 00:48:47;;;;;;;45.30;34.50;;;;;;;7.57;83.33;99194.51;85203;1324;88847;-67
2021/11/03 00:51:00;;;;;;;40.80;30.70;;;;;;;7.60;83.29;99193.98;85309;1325;95980;-64
2021/11/03 00:53:09;;;;;;;47.70;34.50;;;;;;;7.63;83.27;99196.02;85302;1328;79587;-65
2021/11/03 00:55:19;;;;;;;44.80;31.30;;;;;;;7.61;83.38;99195.89;85207;1328;81090;-65
2021/11/03 00:57:31;;;;;;;44.50;31.90;;;;;;;7.64;83.29;99197.81;85283;1329;99344;-65
2021/11/03 00:59:40;;;;;;;42.50;30.40;;;;;;;7.67;83.44;99197.41;85202;1324;87378;-64
2021/11/03 01:01:50;;;;;;;43.80;32.30;;;;;;;7.67;83.53;99191.04;85327;1328;93927;-68
2021/11/03 01:04:00;;;;;;;44.30;32.20;;;;;;;7.67;83.39;99189.80;85215;1329;79612;-66
2021/11/03 01:06:09;;;;;;;42.90;30.80;;;;;;;7.72;83.52;99193.54;85298;1325;83956;-67
2021/11/03 01:08:19;;;;;;;40.70;31.30;;;;;;;7.72;83.64;99194.50;85288;1328;97755;-68
2021/11/03 01:10:32;;;;;;;42.90;29.40;;;;;;;7.76;83.67;99193.60;85205;1328;87475;-64
2021/11/03 01:12:43;;;;;;;38.80;30.40;;;;;;;7.81;83.53;99196.17;85304;1322;93970;-65
2021/11/03 01:14:52;;;;;;;40.40;31.00;;;;;;;7.85;83.51;99195.66;85305;1329;78193;-65
2021/11/03 01:17:06;;;;;;;40.90;30.30;;;;;;;7.87;83.56;99195.58;85244;1328;81210;-63
2021/11/03 01:19:15;;;;;;;39.10;27.70;;;;;;;7.93;83.55;99196.11;85321;1321;98166;-65
2021/11/03 01:21:25;;;;;;;39.90;29.40;;;;;;;7.96;83.55;99196.93;85285;1322;88313;-67
2021/11/03 01:23:34;;;;;;;39.00;29.10;;;;;;;7.98;83.58;99195.00;85211;1324;95381;-67
2021/11/03 01:25:47;;;;;;;37.50;29.00;;;;;;;8.01;83.66;99196.52;85340;1322;77842;-67
2021/11/03 01:27:56;;;;;;;38.80;29.50;;;;;;;8.04;83.69;99196.47;85319;1321;82775;-67
2021/11/03 01:30:12;;;;;;;41.40;28.90;;;;;;;8.08;83.65;99196.52;85218;1324;97002;-67
2021/11/03 01:32:24;;;;;;;37.90;27.00;;;;;;;8.10;83.59;99196.33;85337;1321;86841;-67
2021/11/03 01:34:34;;;;;;;36.90;27.00;;;;;;;8.09;83.55;99197.31;85218;1325;95251;-67
2021/11/03 01:36:44;;;;;;;37.00;28.20;;;;;;;8.09;83.56;99201.73;85289;1321;79299;-69
2021/11/03 01:38:53;;;;;;;35.00;26.90;;;;;;;8.13;83.65;99198.45;85323;1321;83949;-67
2021/11/03 01:41:02;;;;;;;36.40;27.00;;;;;;;8.17;83.70;99197.54;85293;1329;97013;-67
2021/11/03 01:43:34;;;;;;;36.60;26.60;;;;;;;8.19;83.80;99203.34;85225;1324;89137;-68
2021/11/03 01:45:49;;;;;;;35.20;25.50;;;;;;;8.21;83.72;99200.66;85320;1326;92284;-66
2021/11/03 01:48:01;;;;;;;35.00;26.90;;;;;;;8.25;83.76;99203.39;85323;1323;80191;-68
2021/11/03 01:50:19;;;;;;;36.20;27.00;;;;;;;8.26;83.81;99201.42;85319;1322;80143;-67
2021/11/03 01:52:28;;;;;;;32.90;25.80;;;;;;;8.31;83.84;99203.68;85213;1324;99275;-66
2021/11/03 01:54:45;;;;;;;36.50;27.20;;;;;;;8.30;83.85;99202.73;85320;1321;88518;-66
2021/11/03 01:56:55;;;;;;;35.50;26.60;;;;;;;8.29;83.89;99203.34;85226;1328;93190;-64
2021/11/03 01:59:14;;;;;;;34.80;25.60;;;;;;;8.32;83.84;99205.89;85286;1321;81937;-64
2021/11/03 02:01:24;;;;;;;32.10;26.10;;;;;;;8.38;83.87;99202.91;85362;1321;80029;-65
2021/11/03 02:03:34;;;;;;;31.10;24.60;;;;;;;8.41;83.92;99199.11;85363;1322;98979;-64
2021/11/03 02:05:52;;;;;;;33.50;25.30;;;;;;;8.40;83.93;99199.12;85286;1325;88920;-67
2021/11/03 02:08:02;;;;;;;34.90;25.70;;;;;;;8.40;83.84;99198.86;85251;1321;94950;-67
2021/11/03 02:10:13;;;;;;;36.60;25.90;;;;;;;8.41;83.85;99201.08;85299;1322;82801;-64
2021/11/03 02:12:26;;;;;;;32.00;25.30;;;;;;;8.44;83.97;99201.48;85236;1325;79919;-64
2021/11/03 02:14:39;;;;;;;32.50;25.80;;;;;;;8.46;83.89;99201.97;85174;1325;99506;-63
2021/11/03 02:16:52;;;;;;;34.20;25.90;;;;;;;8.47;83.91;99204.59;85291;1324;87494;-63
2021/11/03 02:19:02;;;;;;;34.00;24.70;;;;;;;8.50;83.92;99204.18;85274;1322;96446;-65
2021/11/03 02:21:15;;;;;;;31.90;24.70;;;;;;;8.51;83.96;99199.95;85252;1321;82392;-67
2021/11/03 02:23:37;;;;;;;34.10;25.50;;;;;;;8.52;83.91;99200.98;85231;1322;79906;-67
2021/11/03 02:25:51;;;;;;;35.60;27.20;;;;;;;8.53;83.96;99202.86;85331;1328;99409;-64
2021/11/03 02:27:59;;;;;;;;;;;;;;;8.51;83.97;99204.43;85254;1328;88875;-64
2021/11/03 02:30:13;;;;;;;36.00;25.10;;;;;;;8.49;83.82;99200.32;85210;1325;95073;-64
2021/11/03 02:32:27;;;;;;;;;;;;;;;8.49;83.94;99202.17;85313;1328;81434;-63
2021/11/03 02:34:36;;;;;;;34.80;24.80;;;;;;;8.49;83.98;99201.66;85296;1326;81586;-64
2021/11/03 02:37:00;;;;;;;35.50;26.70;;;;;;;8.45;83.95;99203.46;85195;1325;98840;-68
2021/11/03 02:39:11;;;;;;;;;;;;;;;8.47;84.09;99203.14;85315;1321;88722;-67
2021/11/03 02:41:24;;;;;;;38.30;26.40;;;;;;;8.47;84.08;99201.84;85337;1328;94942;-62
2021/11/03 02:43:40;;;;;;;34.60;25.60;;;;;;;8.47;84.03;99202.52;85212;1324;82757;-63
2021/11/03 02:45:53;;;;;;;32.60;24.30;;;;;;;8.45;84.09;99205.58;85304;1327;80341;-63
2021/11/03 02:48:06;;;;;;;32.80;25.50;;;;;;;8.48;84.17;99204.50;85223;1328;99046;-62
2021/11/03 02:50:16;;;;;;;34.40;26.00;;;;;;;8.47;84.10;99206.70;85333;1321;88851;-63
2021/11/03 02:52:27;;;;;;;31.70;25.00;;;;;;;8.50;84.04;99206.41;85290;1328;95040;-63
2021/11/03 02:54:40;;;;;;;31.70;24.60;;;;;;;8.50;84.07;99208.69;85254;1324;81000;-64
2021/11/03 02:56:57;;;;;;;32.30;25.20;;;;;;;8.50;84.06;99207.91;85335;1322;80925;-63
2021/11/03 02:59:11;;;;;;;31.60;24.80;;;;;;;8.53;84.04;99209.02;85191;1324;97489;-64
2021/11/03 03:01:33;;;;;;;32.80;25.20;;;;;;;8.55;84.16;99209.77;85267;1321;87236;-66
2021/11/03 03:03:46;;;;;;;33.70;25.40;;;;;;;8.57;83.89;99212.80;85276;1321;95744;-66
2021/11/03 03:06:04;;;;;;;34.00;25.80;;;;;;;8.55;83.97;99215.11;85255;1325;81037;-67
2021/11/03 03:08:12;;;;;;;33.30;24.70;;;;;;;8.54;84.01;99217.35;85334;1325;80718;-66
2021/11/03 03:10:22;;;;;;;37.40;26.70;;;;;;;8.51;84.03;99224.38;85208;1324;98741;-62
2021/11/03 03:12:35;;;;;;;31.10;23.90;;;;;;;8.49;84.03;99220.70;85250;1325;89013;-63
2021/11/03 03:14:46;;;;;;;31.80;24.70;;;;;;;8.46;84.01;99221.27;85203;1325;96030;-63
2021/11/03 03:16:59;;;;;;;33.70;24.00;;;;;;;8.46;84.13;99221.43;85318;1322;82036;-66
2021/11/03 03:19:11;;;;;;;35.10;25.90;;;;;;;8.48;84.15;99221.73;85334;1328;83773;-66
2021/11/03 03:21:22;;;;;;;32.00;25.00;;;;;;;8.48;84.15;99224.75;85222;1325;99219;-63
2021/11/03 03:23:32;;;;;;;33.00;25.10;;;;;;;8.47;84.10;99226.29;85299;1328;87313;-63
2021/11/03 03:25:49;;;;;;;32.60;24.30;;;;;;;8.47;84.09;99229.98;85196;1324;95310;-64
2021/11/03 03:28:01;;;;;;;30.30;24.30;;;;;;;8.48;84.07;99237.64;85221;1323;80826;-63
2021/11/03 03:30:12;;;;;;;33.40;25.60;;;;;;;8.46;84.06;99237.16;85332;1321;80851;-63
2021/11/03 03:32:23;;;;;;;32.40;25.50;;;;;;;8.47;84.19;99239.90;85296;1328;99045;-64
2021/11/03 03:34:33;;;;;;;33.30;25.70;;;;;;;8.48;84.19;99237.67;85323;1321;89178;-63
2021/11/03 03:36:43;;;;;;;32.70;24.30;;;;;;;8.46;84.12;99238.29;85318;1328;94379;-63
2021/11/03 03:38:52;;;;;;;30.40;24.20;;;;;;;8.47;84.18;99236.59;85238;1324;81936;-63
2021/11/03 03:41:05;;;;;;;31.30;24.60;;;;;;;8.47;84.04;99237.66;85347;1324;83797;-67
2021/11/03 03:43:15;;;;;;;34.80;24.80;;;;;;;8.46;84.10;99239.95;85338;1321;97320;-67
2021/11/03 03:45:24;;;;;;;32.50;24.20;;;;;;;8.45;83.94;99241.60;85244;1324;89920;-63
2021/11/03 03:47:33;;;;;;;30.70;25.00;;;;;;;8.45;84.00;99242.39;85344;1323;95674;-63
2021/11/03 03:49:46;;;;;;;33.00;24.80;;;;;;;8.45;84.01;99243.05;85192;1324;79961;-63
2021/11/03 03:51:55;;;;;;;30.00;23.20;;;;;;;8.45;83.91;99243.62;85348;1328;83405;-67
2021/11/03 03:54:04;;;;;;;31.80;24.70;;;;;;;8.44;83.87;99247.14;85227;1324;99539;-66
2021/11/03 03:56:15;;;;;;;33.90;25.40;;;;;;;8.43;83.82;99246.11;85321;1322;86514;-67
2021/11/03 03:58:24;;;;;;;33.10;24.10;;;;;;;8.43;83.87;99249.96;85334;1328;94304;-66
2021/11/03 04:00:34;;;;;;;30.00;23.90;;;;;;;8.44;83.94;99248.46;85222;1324;82739;-62
2021/11/03 04:02:44;;;;;;;31.60;24.10;;;;;;;8.44;83.91;99251.66;85375;1325;82037;-62
2021/11/03 04:04:55;;;;;;;30.80;24.80;;;;;;;8.44;83.83;99250.79;85296;1326;98794;-62
2021/11/03 04:07:05;;;;;;;30.70;24.40;;;;;;;8.43;83.76;99252.52;85351;1322;87420;-62
2021/11/03 04:09:14;;;;;;;30.90;23.90;;;;;;;8.41;83.88;99250.48;85233;1324;93926;-62
2021/11/03 04:11:24;;;;;;;31.40;24.90;;;;;;;8.39;83.92;99249.13;85213;1324;81062;-66
2021/11/03 04:13:33;;;;;;;32.40;23.60;;;;;;;8.39;83.90;99250.23;85345;1321;83521;-66
2021/11/03 04:15:43;;;;;;;30.60;24.50;;;;;;;8.38;83.97;99251.14;85308;1328;99785;-67
2021/11/03 04:17:52;;;;;;;30.90;25.10;;;;;;;8.40;83.90;99252.39;85184;1324;89347;-67
2021/11/03 04:20:01;;;;;;;28.30;23.90;;;;;;;8.41;83.77;99251.19;85321;1328;93180;-64
2021/11/03 04:22:13;;;;;;;30.10;23.80;;;;;;;8.43;83.79;99254.30;85216;1328;79394;-63
2021/11/03 04:24:23;;;;;;;30.90;24.30;;;;;;;8.41;83.86;99254.94;85322;1321;79919;-62
2021/11/03 04:26:37;;;;;;;29.80;24.40;;;;;;;8.39;83.95;99259.46;85348;1324;98500;-62
2021/11/03 04:28:46;;;;;;;30.70;23.10;;;;;;;8.41;83.79;99262.25;85193;1323;87827;-63
2021/11/03 04:30:55;;;;;;;28.50;23.90;;;;;;;8.42;83.87;99263.95;85268;1321;95317;-63
2021/11/03 04:33:09;;;;;;;32.90;24.40;;;;;;;8.41;83.79;99265.64;85210;1323;79340;-62
2021/11/03 04:35:18;;;;;;;31.60;24.60;;;;;;;8.41;83.79;99265.75;85346;1328;80426;-65
2021/11/03 04:37:28;;;;;;;30.90;25.30;;;;;;;8.40;83.88;99266.18;85225;1324;98666;-66
2021/11/03 04:39:38;;;;;;;30.80;24.80;;;;;;;8.40;83.88;99267.54;85282;1321;88777;-66
2021/11/03 04:41:47;;;;;;;30.70;25.40;;;;;;;8.39;83.76;99264.77;85280;1328;94596;-67
2021/11/03 04:44:01;;;;;;;29.60;24.50;;;;;;;8.38;83.76;99270.27;85302;1328;82083;-66
2021/11/03 04:46:14;;;;;;;30.60;23.60;;;;;;;8.36;83.76;99271.02;85264;1322;81502;-66
2021/11/03 04:48:23;;;;;;;30.30;24.10;;;;;;;8.35;83.87;99274.06;85305;1328;100407;-66
2021/11/03 04:50:36;;;;;;;31.20;25.30;;;;;;;8.30;83.72;99274.14;85274;1324;88508;-66
2021/11/03 04:52:49;;;;;;;29.60;24.60;;;;;;;8.27;83.72;99277.42;85323;1321;93210;-66
2021/11/03 04:55:01;;;;;;;29.80;24.10;;;;;;;8.22;83.87;99278.97;85313;1322;79252;-67
2021/11/03 04:57:18;;;;;;;30.30;22.80;;;;;;;8.18;83.86;99283.29;85189;1330;83368;-67
2021/11/03 04:59:28;;;;;;;30.60;23.40;;;;;;;8.17;83.79;99288.89;85285;1322;99851;-67
2021/11/03 05:01:41;;;;;;;31.30;23.70;;;;;;;8.21;83.83;99290.01;84965;1328;363877;-62
2021/11/03 05:03:54;;;;;;;30.70;24.30;;;;;;;8.22;83.94;99299.90;85187;1322;95859;-61
2021/11/03 05:06:10;;;;;;;30.20;23.40;;;;;;;8.21;83.97;99301.30;85203;1322;81142;-66
2021/11/03 05:08:22;;;;;;;31.40;23.40;;;;;;;8.24;84.04;99306.70;85325;1322;79649;-67
2021/11/03 05:10:32;;;;;;;31.10;25.20;;;;;;;8.25;83.99;99308.33;85179;1328;99830;-63
2021/11/03 05:12:44;;;;;;;30.60;25.00;;;;;;;8.28;84.04;99311.88;85304;1326;89378;-62
2021/11/03 05:14:57;;;;;;;31.00;23.40;;;;;;;8.31;84.00;99314.09;85298;1322;92576;-62
2021/11/03 05:17:07;;;;;;;30.70;25.30;;;;;;;8.29;84.00;99318.02;85327;1322;80667;-67
2021/11/03 05:19:21;;;;;;;30.10;24.90;;;;;;;8.27;83.85;99314.10;85250;1324;83421;-65
2021/11/03 05:21:37;;;;;;;30.00;22.70;;;;;;;8.28;83.91;99315.58;85327;1322;99612;-62
2021/11/03 05:23:48;;;;;;;31.20;23.90;;;;;;;8.28;83.88;99315.27;85338;1322;88705;-66
2021/11/03 05:25:57;;;;;;;30.60;24.70;;;;;;;8.26;83.86;99322.28;85292;1322;93544;-63
2021/11/03 05:28:10;;;;;;;31.00;22.60;;;;;;;8.25;83.89;99320.36;85328;1328;79832;-61
2021/11/03 05:30:22;;;;;;;31.10;23.90;;;;;;;8.21;83.85;99325.27;85244;1328;82456;-67
2021/11/03 05:32:34;;;;;;;27.00;22.80;;;;;;;8.18;83.89;99322.33;85231;1325;99633;-65
2021/11/03 05:34:48;;;;;;;30.70;23.40;;;;;;;8.14;83.83;99324.04;85219;1325;88823;-66
2021/11/03 05:37:00;;;;;;;31.70;24.60;;;;;;;8.12;83.85;99325.31;85240;1324;94859;-67
2021/11/03 05:39:17;;;;;;;31.60;23.40;;;;;;;8.09;83.97;99331.63;85213;1324;82368;-67
2021/11/03 05:41:27;;;;;;;31.50;22.70;;;;;;;8.08;83.86;99332.41;85326;1323;83696;-66
2021/11/03 05:43:39;;;;;;;30.90;23.20;;;;;;;8.06;83.87;99333.23;85290;1321;99335;-66
2021/11/03 05:45:48;;;;;;;30.10;23.10;;;;;;;8.06;83.92;99338.98;85237;1321;88600;-63
2021/11/03 05:48:00;;;;;;;29.80;22.00;;;;;;;8.04;84.01;99341.29;85277;1321;92268;-62
2021/11/03 05:50:12;;;;;;;30.40;24.20;;;;;;;8.05;84.04;99345.73;85197;1324;81332;-65
2021/11/03 05:52:22;;;;;;;27.70;23.30;;;;;;;8.04;84.05;99345.70;85343;1325;79655;-66
2021/11/03 05:54:34;;;;;;;29.50;22.50;;;;;;;8.00;84.15;99350.33;85281;1321;99976;-67
2021/11/03 05:56:44;;;;;;;28.90;22.80;;;;;;;7.99;84.13;99355.65;85324;1321;88576;-63
2021/11/03 05:58:54;;;;;;;31.00;23.20;;;;;;;7.98;84.13;99356.92;85319;1328;95649;-63
2021/11/03 06:01:08;;;;;;;29.90;22.40;;;;;;;7.98;84.21;99360.52;85224;1324;81781;-67
2021/11/03 06:03:17;;;;;;;30.40;22.50;;;;;;;7.99;84.20;99363.80;85316;1322;82585;-67
2021/11/03 06:05:30;;;;;;;28.90;22.70;;;;;;;8.01;84.21;99367.42;85219;1325;98047;-67
2021/11/03 06:07:40;;;;;;;30.90;22.30;;;;;;;8.03;84.13;99370.04;85304;1321;88064;-67
2021/11/03 06:09:55;;;;;;;29.00;22.80;;;;;;;8.06;84.27;99373.23;85211;1328;95015;-67
2021/11/03 06:12:13;;;;;;;32.10;23.00;;;;;;;8.09;84.30;99383.61;85323;1322;80273;-63
2021/11/03 06:14:23;;;;;;;31.90;23.50;;;;;;;8.15;84.24;99387.12;85214;1328;81772;-64
2021/11/03 06:16:32;;;;;;;30.90;22.60;;;;;;;8.19;84.41;99395.24;85285;1322;98150;-63
2021/11/03 06:18:41;;;;;;;32.00;23.60;;;;;;;8.23;84.31;99395.69;85301;1328;87971;-63
2021/11/03 06:20:51;;;;;;;30.00;24.00;;;;;;;8.25;84.34;99395.74;85214;1324;93154;-62
2021/11/03 06:23:03;;;;;;;30.90;22.60;;;;;;;8.29;84.32;99396.77;85297;1328;79618;-62
2021/11/03 06:25:21;;;;;;;29.60;22.80;;;;;;;8.33;84.35;99399.73;85318;1328;82820;-66
2021/11/03 06:27:34;;;;;;;27.90;20.90;;;;;;;8.35;84.40;99404.59;85295;1321;97674;-66
2021/11/03 06:29:44;;;;;;;30.30;22.90;;;;;;;8.38;84.40;99409.91;85244;1325;86927;-66
2021/11/03 06:31:56;;;;;;;27.30;21.50;;;;;;;8.44;84.32;99412.42;85303;1328;95021;-77
2021/11/03 06:34:07;;;;;;;30.00;23.10;;;;;;;8.54;84.40;99416.61;85325;1328;80029;-68
2021/11/03 06:36:18;;;;;;;28.00;21.60;;;;;;;8.60;84.26;99413.37;85233;1325;82296;-68
2021/11/03 06:38:27;;;;;;;28.60;22.80;;;;;;;8.63;84.26;99423.19;85289;1321;99469;-69
2021/11/03 06:40:41;;;;;;;28.60;22.70;;;;;;;8.74;84.42;99424.90;85236;1325;88096;-62
2021/11/03 06:42:51;;;;;;;30.50;23.10;;;;;;;8.85;84.11;99424.32;85267;1322;94175;-61
2021/11/03 06:45:03;;;;;;;28.20;21.60;;;;;;;9.21;84.37;99426.20;85308;1328;80000;-66
2021/11/03 06:47:12;;;;;;;27.40;21.40;;;;;;;9.35;83.95;99429.79;85212;1327;81713;-65
2021/11/03 06:49:24;;;;;;;27.10;21.60;;;;;;;9.52;83.85;99431.48;85024;1328;100596;-61
2021/11/03 06:51:34;;;;;;;29.00;22.20;;;;;;;9.72;83.60;99437.42;85325;1321;88910;-68
2021/11/03 06:53:43;;;;;;;29.30;23.00;;;;;;;9.85;83.33;99431.94;85234;1324;94165;-69
2021/11/03 06:55:57;;;;;;;26.30;21.40;;;;;;;10.02;83.26;99437.77;85339;1315;78410;-63
2021/11/03 06:58:06;;;;;;;28.10;22.60;;;;;;;10.10;82.87;99438.43;85211;1325;82505;-62
2021/11/03 07:00:22;;;;;;;29.10;21.40;;;;;;;10.06;82.54;99441.83;85299;1322;100388;-69
2021/11/03 07:02:31;;;;;;;28.20;22.00;;;;;;;9.98;82.34;99440.44;85236;1323;87929;-69
2021/11/03 07:04:41;;;;;;;25.20;20.20;;;;;;;9.92;82.23;99442.85;85284;1328;95785;-68
2021/11/03 07:06:54;;;;;;;25.10;18.90;;;;;;;9.98;82.32;99447.50;85287;1321;81432;-63
2021/11/03 07:09:03;;;;;;;25.90;20.10;;;;;;;10.02;82.27;99449.11;85255;1324;82684;-62
2021/11/03 07:11:15;;;;;;;27.00;21.00;;;;;;;10.29;82.21;99447.98;85312;1328;98377;-63
2021/11/03 07:13:27;;;;;;;24.40;20.30;;;;;;;10.46;82.01;99459.25;85323;1322;89600;-62
2021/11/03 07:15:39;;;;;;;26.20;19.90;;;;;;;11.41;82.34;99454.27;85223;1328;94709;-63
2021/11/03 07:17:55;;;;;;;24.30;19.10;;;;;;;12.71;81.82;99449.98;85334;1323;79371;-64
2021/11/03 07:20:09;;;;;;;23.40;18.20;;;;;;;13.71;80.34;99450.58;85316;1325;81997;-64
2021/11/03 07:22:18;;;;;;;20.30;17.70;;;;;;;14.36;78.88;99453.12;85213;1325;100350;-62
2021/11/03 07:24:28;;;;;;;22.40;17.10;;;;;;;14.48;77.25;99455.67;85317;1328;87004;-62
2021/11/03 07:26:40;;;;;;;21.20;18.50;;;;;;;13.78;76.34;99463.73;85204;1327;94680;-68
2021/11/03 07:28:49;;;;;;;18.70;16.40;;;;;;;13.08;76.11;99467.12;85282;1328;78651;-68
2021/11/03 07:31:02;;;;;;;21.70;17.80;;;;;;;12.61;76.15;99472.13;85182;1324;81767;-69
2021/11/03 07:33:14;;;;;;;21.70;17.20;;;;;;;12.11;76.02;99473.45;85310;1328;99888;-69
2021/11/03 07:35:27;;;;;;;22.10;18.10;;;;;;;11.66;76.24;99475.20;85214;1329;89297;-63
2021/11/03 07:37:40;;;;;;;22.70;18.30;;;;;;;11.40;76.55;99480.18;85326;1322;96105;-63
2021/11/03 07:39:50;;;;;;;21.50;18.40;;;;;;;11.20;76.77;99480.29;85211;1328;79281;-62
2021/11/03 07:41:59;;;;;;;21.60;18.30;;;;;;;11.08;76.80;99483.09;85333;1322;81999;-62
2021/11/03 07:44:10;;;;;;;24.30;20.00;;;;;;;10.91;76.90;99486.79;85303;1321;100565;-62
2021/11/03 07:46:21;;;;;;;22.60;19.90;;;;;;;10.77;76.89;99486.08;85229;1328;89176;-61
2021/11/03 07:48:31;;;;;;;24.70;19.90;;;;;;;10.64;77.31;99495.95;85303;1321;94273;-67
2021/11/03 07:50:46;;;;;;;29.10;20.50;;;;;;;10.54;77.38;99494.98;85299;1321;80762;-62
2021/11/03 07:52:56;;;;;;;26.80;21.60;;;;;;;10.43;77.61;99497.55;85184;1325;81168;-62
2021/11/03 07:55:10;;;;;;;27.10;21.10;;;;;;;10.45;77.78;99502.61;85308;1328;99740;-67
2021/11/03 07:57:20;;;;;;;24.80;21.20;;;;;;;10.47;77.74;99506.22;85313;1321;89879;-68
2021/11/03 07:59:32;;;;;;;25.60;19.70;;;;;;;10.41;78.06;99509.38;85238;1324;94024;-70
2021/11/03 08:01:41;;;;;;;25.20;19.90;;;;;;;10.48;78.29;99511.16;85292;1321;81496;-69
2021/11/03 08:03:51;;;;;;;26.40;20.10;;;;;;;10.53;78.22;99513.54;85302;1328;83378;-69
2021/11/03 08:06:01;;;;;;;23.90;19.80;;;;;;;10.54;78.10;99518.71;85337;1323;99583;-68
2021/11/03 08:08:16;;;;;;;26.50;20.30;;;;;;;10.42;78.31;99518.69;85207;1325;88662;-69
2021/11/03 08:10:30;;;;;;;25.00;19.20;;;;;;;10.42;78.43;99522.72;85275;1322;95865;-63
2021/11/03 08:12:40;;;;;;;25.50;20.40;;;;;;;10.52;78.66;99525.02;85297;1328;77845;-62
2021/11/03 08:14:56;;;;;;;27.20;20.40;;;;;;;10.74;78.79;99522.00;85297;1322;82350;-64
2021/11/03 08:17:13;;;;;;;24.80;20.10;;;;;;;10.81;78.66;99523.27;85216;1328;99175;-64
2021/11/03 08:19:25;;;;;;;27.10;21.00;;;;;;;10.78;78.67;99523.40;85216;1324;88045;-63
2021/11/03 08:21:37;;;;;;;27.20;20.50;;;;;;;10.73;78.59;99524.82;85209;1325;95075;-63
2021/11/03 08:23:47;;;;;;;31.00;22.40;;;;;;;10.64;78.63;99526.17;85223;1327;79703;-63
2021/11/03 08:25:56;;;;;;;29.90;21.70;;;;;;;10.57;78.71;99530.56;85311;1322;81127;-63
2021/11/03 08:28:10;;;;;;;26.70;20.90;;;;;;;10.57;78.71;99529.59;85206;1330;100492;-67
2021/11/03 08:30:19;;;;;;;;;;;;;;;10.68;78.88;99532.36;85276;1330;87598;-68
2021/11/03 08:32:44;;;;;;;29.90;22.30;;;;;;;10.75;78.97;99536.78;85281;1321;95738;-63
2021/11/03 08:34:55;;;;;;;29.10;21.10;;;;;;;10.77;78.98;99542.61;85325;1328;79568;-63
2021/11/03 08:37:08;;;;;;;28.30;21.60;;;;;;;10.79;78.99;99546.47;85298;1324;80770;-69
2021/11/03 08:39:17;;;;;;;29.40;22.10;;;;;;;10.78;78.96;99546.05;85272;1322;100127;-70
2021/11/03 08:41:28;;;;;;;29.50;22.20;;;;;;;10.74;78.95;99547.02;85348;1328;87708;-64
2021/11/03 08:43:50;;;;;;;36.90;27.10;;;;;;;10.75;79.14;99547.05;85330;1322;95636;-62
2021/11/03 08:46:04;;;;;;;35.70;25.90;;;;;;;10.83;79.07;99552.73;85215;1330;77797;-70
2021/11/03 08:48:16;;;;;;;30.50;23.90;;;;;;;10.85;79.04;99556.64;85328;1323;82673;-69
2021/11/03 08:50:36;;;;;;;26.50;20.70;;;;;;;10.89;78.95;99554.33;85211;1328;98648;-69
2021/11/03 08:52:46;;;;;;;29.80;22.00;;;;;;;10.92;78.95;99560.98;85265;1325;89177;-68
2021/11/03 08:55:02;;;;;;;28.40;22.80;;;;;;;10.89;78.82;99557.23;85311;1327;95135;-69
2021/11/03 08:57:13;;;;;;;30.40;23.30;;;;;;;10.84;78.95;99558.72;85299;1323;80985;-63
2021/11/03 08:59:25;;;;;;;30.70;22.70;;;;;;;10.93;79.08;99565.23;85286;1321;81231;-62
2021/11/03 09:01:35;;;;;;;33.70;24.20;;;;;;;10.97;79.01;99562.52;85194;1325;99731;-71
2021/11/03 09:03:44;;;;;;;30.40;23.90;;;;;;;10.96;79.00;99564.20;85236;1324;89347;-69
2021/11/03 09:06:00;;;;;;;33.10;24.70;;;;;;;10.94;78.95;99563.30;85364;1321;93547;-69
2021/11/03 09:08:11;;;;;;;34.00;24.70;;;;;;;10.91;78.93;99564.13;85225;1322;79617;-69
2021/11/03 09:10:24;;;;;;;34.20;24.10;;;;;;;10.84;78.91;99566.19;85335;1328;83627;-63
2021/11/03 09:12:34;;;;;;;34.30;24.80;;;;;;;10.77;78.92;99569.29;85200;1331;98518;-64
2021/11/03 09:14:46;;;;;;;32.80;25.80;;;;;;;10.77;78.88;99569.66;85302;1323;86382;-63
2021/11/03 09:17:00;;;;;;;32.20;24.60;;;;;;;10.71;78.79;99572.09;85282;1322;95597;-61
2021/11/03 09:19:10;;;;;;;30.50;24.40;;;;;;;10.70;78.97;99574.20;85199;1328;80531;-61
2021/11/03 09:21:25;;;;;;;33.00;24.80;;;;;;;10.68;79.10;99576.15;85340;1322;81705;-69
2021/11/03 09:23:34;;;;;;;29.60;23.60;;;;;;;10.68;79.26;99577.87;85330;1328;100271;-71
2021/11/03 09:25:48;;;;;;;29.70;23.60;;;;;;;10.60;79.34;99582.40;85201;1327;87614;-64
2021/11/03 09:27:57;;;;;;;33.00;24.40;;;;;;;10.70;79.40;99582.27;85257;1322;94219;-63
2021/11/03 09:30:13;;;;;;;32.20;25.60;;;;;;;10.77;79.38;99582.38;85345;1321;80541;-66
2021/11/03 09:32:30;;;;;;;30.00;23.90;;;;;;;10.83;79.17;99585.48;85213;1328;81611;-63
2021/11/03 09:34:40;;;;;;;30.40;24.40;;;;;;;10.82;78.97;99586.91;85339;1322;100084;-62
2021/11/03 09:36:53;;;;;;;29.90;24.20;;;;;;;10.78;78.93;99589.27;85243;1324;88776;-61
2021/11/03 09:39:06;;;;;;;32.00;23.00;;;;;;;10.82;79.05;99587.77;85318;1322;94478;-62
2021/11/03 09:41:27;;;;;;;33.00;24.50;;;;;;;10.83;79.20;99588.73;85321;1321;78018;-69
2021/11/03 09:43:42;;;;;;;32.30;24.00;;;;;;;10.91;79.20;99590.75;85211;1325;82198;-68
2021/11/03 09:45:55;;;;;;;30.20;23.80;;;;;;;10.91;78.92;99592.31;85343;1327;99425;-69
2021/11/03 09:48:21;;;;;;;29.50;23.00;;;;;;;10.89;78.91;99590.84;85219;1324;89925;-69
2021/11/03 09:50:34;;;;;;;29.40;22.40;;;;;;;10.91;78.87;99592.20;85320;1328;96019;-69
2021/11/03 09:52:54;;;;;;;28.70;23.60;;;;;;;10.95;78.93;99588.99;85320;1322;82456;-63
2021/11/03 09:55:22;;;;;;;26.60;23.10;;;;;;;11.04;78.84;99591.91;85208;1324;80424;-65
2021/11/03 09:57:49;;;;;;;29.50;23.90;;;;;;;11.07;78.85;99591.46;85324;1328;99459;-69
2021/11/03 10:00:18;;;;;;;29.10;22.10;;;;;;;11.13;78.63;99591.14;85342;1327;85785;-66
2021/11/03 10:02:45;;;;;;;28.30;22.60;;;;;;;11.27;78.69;99593.10;85303;1321;95753;-67
2021/11/03 10:05:20;;;;;;;29.30;22.60;;;;;;;11.37;78.52;99597.65;85202;1325;79377;-69
2021/11/03 10:07:54;;;;;;;29.20;23.90;;;;;;;11.43;78.21;99595.61;85296;1328;81735;-69
2021/11/03 10:10:19;;;;;;;26.70;21.60;;;;;;;11.42;78.31;99604.86;85332;1328;97885;-62
2021/11/03 10:12:32;;;;;;;27.90;22.10;;;;;;;11.40;78.18;99609.41;85214;1328;89033;-69
2021/11/03 10:14:42;;;;;;;26.50;22.10;;;;;;;11.41;78.20;99613.17;85300;1329;94921;-68